createdAt,value
2018-09-27T00:00:08.530Z,11.80
2018-09-27T00:01:13.085Z,14.60
2018-09-27T00:02:17.509Z,17.42
2018-09-27T00:03:21.875Z,18.07
2018-09-27T00:04:26.496Z,16.90
2018-09-27T00:05:31.805Z,13.50
2018-09-27T00:06:36.228Z,13.13
2018-09-27T00:07:40.666Z,10.90
2018-09-27T00:08:45.208Z,15.28
2018-09-27T00:09:49.582Z,11.38
2018-09-27T00:10:54.175Z,10.70
2018-09-27T00:11:58.597Z,16.52
2018-09-27T00:13:02.974Z,9.93
2018-09-27T00:14:08.523Z,11.93
2018-09-27T00:15:12.973Z,10.88
2018-09-27T00:16:18.121Z,17.27
2018-09-27T00:17:22.518Z,15.05
2018-09-27T00:18:27.237Z,12.07
2018-09-27T00:19:34.500Z,13.05
2018-09-27T00:20:39.324Z,15.93
2018-09-27T00:21:43.730Z,16.10
2018-09-27T00:22:49.036Z,8.43
2018-09-27T00:23:53.467Z,8.30
2018-09-27T00:24:58.174Z,11.78
2018-09-27T00:26:03.466Z,13.30
2018-09-27T00:27:08.475Z,15.15
2018-09-27T00:28:13.015Z,9.70
2018-09-27T00:29:17.478Z,16.48
2018-09-27T00:30:22.617Z,29.32
2018-09-27T00:31:27.130Z,14.60
2018-09-27T00:32:31.799Z,16.52
2018-09-27T00:33:36.772Z,14.75
2018-09-27T00:34:41.282Z,21.45
2018-09-27T00:35:45.735Z,22.50
2018-09-27T00:36:50.106Z,14.85
2018-09-27T00:37:54.498Z,25.52
2018-09-27T00:38:59.152Z,20.48
2018-09-27T00:40:03.589Z,13.08
2018-09-27T00:41:07.949Z,11.22
2018-09-27T00:42:12.323Z,12.35
2018-09-27T00:43:16.646Z,10.60
2018-09-27T00:44:22.005Z,8.60
2018-09-27T00:45:26.400Z,10.68
2018-09-27T00:46:30.761Z,10.05
2018-09-27T00:47:35.149Z,10.18
2018-09-27T00:48:39.572Z,10.95
2018-09-27T00:49:43.909Z,11.20
2018-09-27T00:50:48.851Z,11.85
2018-09-27T00:51:53.224Z,16.48
2018-09-27T00:52:57.747Z,13.88
2018-09-27T00:54:02.638Z,8.68
2018-09-27T00:55:07.221Z,9.90
2018-09-27T00:56:11.669Z,11.15
2018-09-27T00:57:16.293Z,24.63
2018-09-27T00:58:21.751Z,11.20
2018-09-27T00:59:26.472Z,9.65
2018-09-27T01:00:31.114Z,10.80
2018-09-27T01:01:35.882Z,11.05
2018-09-27T01:02:40.309Z,13.50
2018-09-27T01:03:44.626Z,7.78
2018-09-27T01:04:49.022Z,7.03
2018-09-27T01:05:53.620Z,18.40
2018-09-27T01:06:58.045Z,15.32
2018-09-27T01:08:02.565Z,8.68
2018-09-27T01:09:09.145Z,10.53
2018-09-27T01:10:13.498Z,13.78
2018-09-27T01:11:17.855Z,12.53
2018-09-27T01:12:22.368Z,15.23
2018-09-27T01:13:27.271Z,14.73
2018-09-27T01:14:31.621Z,17.27
2018-09-27T01:15:36.033Z,12.05
2018-09-27T01:16:40.393Z,12.23
2018-09-27T01:17:44.815Z,11.70
2018-09-27T01:19:19.845Z,12.37
2018-09-27T01:20:24.801Z,9.28
2018-09-27T01:21:29.536Z,14.60
2018-09-27T01:22:33.910Z,8.78
2018-09-27T01:23:38.731Z,10.38
2018-09-27T01:24:43.134Z,14.78
2018-09-27T01:25:47.565Z,15.95
2018-09-27T01:26:51.902Z,15.98
2018-09-27T01:27:56.302Z,24.55
2018-09-27T01:29:01.312Z,19.67
2018-09-27T01:30:06.392Z,15.05
2018-09-27T01:31:11.294Z,12.25
2018-09-27T01:32:15.675Z,10.18
2018-09-27T01:33:20.089Z,15.18
2018-09-27T01:34:24.861Z,16.10
2018-09-27T01:35:30.285Z,13.93
2018-09-27T01:36:35.412Z,13.03
2018-09-27T01:37:39.906Z,13.93
2018-09-27T01:38:44.244Z,12.13
2018-09-27T01:39:48.636Z,11.93
2018-09-27T01:40:53.543Z,18.27
2018-09-27T01:41:57.938Z,11.40
2018-09-27T01:43:02.360Z,12.93
2018-09-27T01:44:06.845Z,11.22
2018-09-27T01:45:11.245Z,10.32
2018-09-27T01:46:15.517Z,10.88
2018-09-27T01:47:20.393Z,13.78
2018-09-27T01:48:24.807Z,9.70
2018-09-27T01:49:29.159Z,13.03
2018-09-27T01:50:35.645Z,10.58
2018-09-27T01:51:40.028Z,10.93
2018-09-27T01:52:44.461Z,17.25
2018-09-27T01:53:48.841Z,9.63
2018-09-27T01:54:53.209Z,9.55
2018-09-27T01:55:57.736Z,8.18
2018-09-27T01:57:02.418Z,9.33
2018-09-27T01:58:06.744Z,16.90
2018-09-27T01:59:11.348Z,18.82
2018-09-27T02:00:15.695Z,13.48
2018-09-27T02:01:20.068Z,18.15
2018-09-27T02:02:24.384Z,11.10
2018-09-27T02:03:28.897Z,11.30
2018-09-27T02:04:33.346Z,15.70
2018-09-27T02:05:37.905Z,25.17
2018-09-27T02:06:42.234Z,15.72
2018-09-27T02:07:46.574Z,20.05
2018-09-27T02:08:50.993Z,18.55
2018-09-27T02:09:55.366Z,20.48
2018-09-27T02:10:59.750Z,16.15
2018-09-27T02:12:05.008Z,17.20
2018-09-27T02:13:09.832Z,13.68
2018-09-27T02:14:14.165Z,15.68
2018-09-27T02:15:19.653Z,15.75
2018-09-27T02:16:24.074Z,13.60
2018-09-27T02:17:28.409Z,12.58
2018-09-27T02:18:32.793Z,16.02
2018-09-27T02:19:37.193Z,19.23
2018-09-27T02:20:41.567Z,8.43
2018-09-27T02:21:46.120Z,12.03
2018-09-27T02:22:50.516Z,9.05
2018-09-27T02:23:55.044Z,13.50
2018-09-27T02:24:59.994Z,14.30
2018-09-27T02:26:04.681Z,13.35
2018-09-27T02:27:09.066Z,16.60
2018-09-27T02:28:13.734Z,11.15
2018-09-27T02:29:18.052Z,12.25
2018-09-27T02:30:22.384Z,10.25
2018-09-27T02:31:26.762Z,9.15
2018-09-27T02:32:31.238Z,9.75
2018-09-27T02:33:35.627Z,13.90
2018-09-27T02:34:41.581Z,15.90
2018-09-27T02:35:46.799Z,13.90
2018-09-27T02:36:51.142Z,12.70
2018-09-27T02:37:55.683Z,13.78
2018-09-27T02:39:00.081Z,13.78
2018-09-27T02:40:04.511Z,9.98
2018-09-27T02:41:08.941Z,11.35
2018-09-27T02:42:13.283Z,14.25
2018-09-27T02:43:17.665Z,17.40
2018-09-27T02:44:22.437Z,18.80
2018-09-27T02:45:26.825Z,21.33
2018-09-27T02:46:31.182Z,15.60
2018-09-27T02:47:35.777Z,20.82
2018-09-27T02:48:40.165Z,16.85
2018-09-27T02:49:44.496Z,15.72
2018-09-27T02:50:49.227Z,16.23
2018-09-27T02:51:53.939Z,19.70
2018-09-27T02:52:58.253Z,20.57
2018-09-27T02:54:02.599Z,22.42
2018-09-27T02:55:06.977Z,12.25
2018-09-27T02:56:11.383Z,11.30
2018-09-27T02:57:15.749Z,15.78
2018-09-27T02:58:20.075Z,10.78
2018-09-27T02:59:24.703Z,9.18
2018-09-27T03:00:29.282Z,12.58
2018-09-27T03:01:33.675Z,7.95
2018-09-27T03:02:38.050Z,8.83
2018-09-27T03:03:42.439Z,8.10
2018-09-27T03:04:46.857Z,10.10
2018-09-27T03:05:51.201Z,9.58
2018-09-27T03:06:55.555Z,11.95
2018-09-27T03:07:59.916Z,8.25
2018-09-27T03:09:04.843Z,11.97
2018-09-27T03:10:09.260Z,15.23
2018-09-27T03:11:13.604Z,10.70
2018-09-27T03:12:17.965Z,10.30
2018-09-27T03:13:22.377Z,16.07
2018-09-27T03:14:26.785Z,13.50
2018-09-27T03:15:31.173Z,13.15
2018-09-27T03:16:35.699Z,17.23
2018-09-27T03:17:40.172Z,10.05
2018-09-27T03:18:45.154Z,13.08
2018-09-27T03:19:49.573Z,10.48
2018-09-27T03:20:53.989Z,8.88
2018-09-27T03:21:58.288Z,14.95
2018-09-27T03:23:02.668Z,8.00
2018-09-27T03:24:07.515Z,13.25
2018-09-27T03:25:11.886Z,11.08
2018-09-27T03:26:16.817Z,27.60
2018-09-27T03:27:21.282Z,16.00
2018-09-27T03:28:26.045Z,18.50
2018-09-27T03:29:31.694Z,18.23
2018-09-27T03:30:36.353Z,19.55
2018-09-27T03:31:40.713Z,15.38
2018-09-27T03:32:45.100Z,25.30
2018-09-27T03:33:49.400Z,15.65
2018-09-27T03:34:53.712Z,20.35
2018-09-27T03:35:58.108Z,15.40
2018-09-27T03:37:02.417Z,28.00
2018-09-27T03:38:10.200Z,19.50
2018-09-27T03:39:15.570Z,18.00
2018-09-27T03:40:19.982Z,20.10
2018-09-27T03:41:24.318Z,21.37
2018-09-27T03:42:28.701Z,11.25
2018-09-27T03:43:33.463Z,17.15
2018-09-27T03:44:37.843Z,14.98
2018-09-27T03:45:42.217Z,10.28
2018-09-27T03:46:46.654Z,13.08
2018-09-27T03:47:51.187Z,11.45
2018-09-27T03:48:55.755Z,14.70
2018-09-27T03:50:00.137Z,7.83
2018-09-27T03:51:05.738Z,11.50
2018-09-27T03:52:10.113Z,11.97
2018-09-27T03:53:14.470Z,8.43
2018-09-27T03:54:18.899Z,17.05
2018-09-27T03:55:25.696Z,18.87
2018-09-27T03:56:31.741Z,8.25
2018-09-27T03:57:36.080Z,13.10
2018-09-27T03:58:40.490Z,18.67
2018-09-27T03:59:45.233Z,20.50
2018-09-27T04:00:49.622Z,27.22
2018-09-27T04:01:54.140Z,11.60
2018-09-27T04:02:58.558Z,11.03
2018-09-27T04:04:02.954Z,12.37
2018-09-27T04:05:07.343Z,14.23
2018-09-27T04:06:11.750Z,9.88
2018-09-27T04:07:16.308Z,13.83
2018-09-27T04:08:20.686Z,10.65
2018-09-27T04:09:25.086Z,9.35
2018-09-27T04:10:29.649Z,10.82
2018-09-27T04:11:34.848Z,13.05
2018-09-27T04:12:41.191Z,7.30
2018-09-27T04:13:46.680Z,10.35
2018-09-27T04:14:51.065Z,11.08
2018-09-27T04:15:55.883Z,12.13
2018-09-27T04:17:00.258Z,16.80
2018-09-27T04:18:05.954Z,13.50
2018-09-27T04:19:10.399Z,14.70
2018-09-27T04:20:14.710Z,15.43
2018-09-27T04:21:19.063Z,14.87
2018-09-27T04:22:23.429Z,9.75
2018-09-27T04:23:27.878Z,22.27
2018-09-27T04:24:32.298Z,12.13
2018-09-27T04:25:36.689Z,16.05
2018-09-27T04:26:41.060Z,13.20
2018-09-27T04:27:45.415Z,20.70
2018-09-27T04:28:50.994Z,12.00
2018-09-27T04:29:55.448Z,7.80
2018-09-27T04:31:00.862Z,16.42
2018-09-27T04:32:05.205Z,9.48
2018-09-27T04:33:09.698Z,22.20
2018-09-27T04:34:14.505Z,23.70
2018-09-27T04:35:18.807Z,17.82
2018-09-27T04:36:23.256Z,16.37
2018-09-27T04:37:27.693Z,16.48
2018-09-27T04:38:32.073Z,9.00
2018-09-27T04:39:36.880Z,10.10
2018-09-27T04:40:42.285Z,11.48
2018-09-27T04:42:01.952Z,19.35
2018-09-27T04:43:08.217Z,9.65
2018-09-27T04:44:13.239Z,11.95
2018-09-27T04:45:18.544Z,12.18
2018-09-27T04:47:26.851Z,12.43
2018-09-27T04:48:31.210Z,8.58
2018-09-27T04:49:36.601Z,10.80
2018-09-27T04:50:42.155Z,8.65
2018-09-27T04:51:47.055Z,8.53
2018-09-27T04:52:59.380Z,9.03
2018-09-27T04:54:13.113Z,11.15
2018-09-27T04:55:22.501Z,8.33
2018-09-27T04:56:27.057Z,20.37
2018-09-27T04:57:31.433Z,12.63
2018-09-27T04:58:37.597Z,6.50
2018-09-27T04:59:42.176Z,11.20
2018-09-27T05:00:48.750Z,10.40
2018-09-27T05:01:53.083Z,15.30
2018-09-27T05:02:57.654Z,9.08
2018-09-27T05:04:02.891Z,7.58
2018-09-27T05:05:08.638Z,33.48
2018-09-27T05:06:13.268Z,87.55
2018-09-27T05:07:17.754Z,27.22
2018-09-27T05:08:22.112Z,20.02
2018-09-27T05:09:29.990Z,30.43
2018-09-27T05:10:34.632Z,37.93
2018-09-27T05:11:39.137Z,30.88
2018-09-27T05:12:44.786Z,32.67
2018-09-27T05:13:49.457Z,26.45
2018-09-27T05:14:54.821Z,201.58
2018-09-27T05:15:59.652Z,51.53
2018-09-27T05:17:07.239Z,37.20
2018-09-27T05:18:17.862Z,34.15
2018-09-27T05:19:24.280Z,22.62
2018-09-27T05:20:32.707Z,21.97
2018-09-27T05:21:39.902Z,37.40
2018-09-27T05:22:49.595Z,51.33
2018-09-27T05:24:04.580Z,71.33
2018-09-27T05:25:15.525Z,51.23
2018-09-27T05:26:22.470Z,46.05
2018-09-27T05:27:28.706Z,66.07
2018-09-27T05:28:42.416Z,53.40
2018-09-27T05:29:53.170Z,62.50
2018-09-27T05:31:02.362Z,45.00
2018-09-27T05:32:09.298Z,39.48
2018-09-27T05:33:15.330Z,49.18
2018-09-27T05:34:22.488Z,98.45
2018-09-27T05:35:44.837Z,44.05
2018-09-27T05:36:49.794Z,35.58
2018-09-27T05:37:58.965Z,52.83
2018-09-27T05:39:11.313Z,54.67
2018-09-27T05:40:16.172Z,171.00
2018-09-27T05:41:21.855Z,154.97
2018-09-27T05:42:31.250Z,60.55
2018-09-27T05:43:36.306Z,167.47
2018-09-27T05:44:42.797Z,186.20
2018-09-27T05:45:47.254Z,105.22
2018-09-27T05:46:51.646Z,47.88
2018-09-27T05:47:56.338Z,50.45
2018-09-27T05:49:01.632Z,47.80
2018-09-27T05:50:07.813Z,30.95
2018-09-27T05:51:12.243Z,56.90
2018-09-27T05:52:16.678Z,47.17
2018-09-27T05:53:23.187Z,42.80
2018-09-27T05:54:27.660Z,34.78
2018-09-27T05:55:32.741Z,34.27
2018-09-27T05:56:37.228Z,30.00
2018-09-27T05:57:41.648Z,69.58
2018-09-27T05:58:46.273Z,31.93
2018-09-27T05:59:50.839Z,33.80
2018-09-27T06:00:56.233Z,27.22
2018-09-27T06:02:00.741Z,30.32
2018-09-27T06:03:07.815Z,19.85
2018-09-27T06:04:12.859Z,34.53
2018-09-27T06:05:17.465Z,23.47
2018-09-27T06:06:23.407Z,21.05
2018-09-27T06:07:28.182Z,39.20
2018-09-27T06:08:33.631Z,14.98
2018-09-27T06:09:38.297Z,19.70
2018-09-27T06:10:43.291Z,18.52
2018-09-27T06:11:48.381Z,14.38
2018-09-27T06:12:53.796Z,17.20
2018-09-27T06:13:58.306Z,27.90
2018-09-27T06:15:02.707Z,41.98
2018-09-27T06:16:08.193Z,45.95
2018-09-27T06:17:12.617Z,23.40
2018-09-27T06:18:17.360Z,27.87
2018-09-27T06:19:23.523Z,16.67
2018-09-27T06:20:27.958Z,25.20
2018-09-27T06:21:37.257Z,22.85
2018-09-27T06:22:45.804Z,23.83
2018-09-27T06:23:51.827Z,20.48
2018-09-27T06:24:57.341Z,28.32
2018-09-27T06:26:02.302Z,37.78
2018-09-27T06:27:08.441Z,28.67
2018-09-27T06:28:12.814Z,24.18
2018-09-27T06:29:18.225Z,29.18
2018-09-27T06:30:22.673Z,32.83
2018-09-27T06:31:27.221Z,23.85
2018-09-27T06:32:32.276Z,35.68
2018-09-27T06:33:39.554Z,26.37
2018-09-27T06:34:44.239Z,28.07
2018-09-27T06:35:48.665Z,30.97
2018-09-27T06:36:53.278Z,21.00
2018-09-27T06:37:59.220Z,16.87
2018-09-27T06:39:05.282Z,18.57
2018-09-27T06:40:10.414Z,19.15
2018-09-27T06:41:16.811Z,19.25
2018-09-27T06:42:22.470Z,19.50
2018-09-27T06:43:27.923Z,13.30
2018-09-27T06:44:32.560Z,17.65
2018-09-27T06:45:38.185Z,12.63
2018-09-27T06:46:42.750Z,11.25
2018-09-27T06:47:47.724Z,10.38
2018-09-27T06:48:53.201Z,14.03
2018-09-27T06:49:59.960Z,16.82
2018-09-27T06:51:05.995Z,20.23
2018-09-27T06:52:12.696Z,12.25
2018-09-27T06:53:17.977Z,14.58
2018-09-27T06:54:22.642Z,14.38
2018-09-27T06:55:32.158Z,17.70
2018-09-27T06:56:38.665Z,12.30
2018-09-27T06:57:50.028Z,11.57
2018-09-27T06:58:55.674Z,23.02
2018-09-27T07:00:00.475Z,12.90
2018-09-27T07:01:06.015Z,11.85
2018-09-27T07:02:13.012Z,7.75
2018-09-27T07:03:19.554Z,18.92
2018-09-27T07:04:24.530Z,13.55
2018-09-27T07:05:29.452Z,26.60
2018-09-27T07:06:34.422Z,15.93
2018-09-27T07:07:39.385Z,11.25
2018-09-27T07:08:44.605Z,7.83
2018-09-27T07:09:49.220Z,8.88
2018-09-27T07:10:56.620Z,17.98
2018-09-27T07:13:59.179Z,20.82
2018-09-27T07:15:06.061Z,27.35
2018-09-27T07:16:12.220Z,14.18
2018-09-27T07:17:19.950Z,19.50
2018-09-27T07:18:32.332Z,25.05
2018-09-27T07:19:42.829Z,16.17
2018-09-27T07:20:49.575Z,14.38
2018-09-27T07:21:55.617Z,13.22
2018-09-27T07:23:00.892Z,14.68
2018-09-27T07:24:06.883Z,23.70
2018-09-27T07:25:12.725Z,13.75
2018-09-27T07:26:18.271Z,10.70
2018-09-27T07:27:22.730Z,24.98
2018-09-27T07:28:27.450Z,21.82
2018-09-27T07:29:32.857Z,9.35
2018-09-27T07:30:38.040Z,19.55
2018-09-27T07:31:42.659Z,16.17
2018-09-27T07:32:47.607Z,13.43
2018-09-27T07:33:54.497Z,11.18
2018-09-27T07:34:59.095Z,14.20
2018-09-27T07:36:11.348Z,29.42
2018-09-27T07:37:17.440Z,24.67
2018-09-27T07:38:24.023Z,17.32
2018-09-27T07:39:50.872Z,17.92
2018-09-27T07:40:56.809Z,20.85
2018-09-27T07:42:11.502Z,16.40
2018-09-27T07:43:17.787Z,14.43
2018-09-27T07:44:22.642Z,11.48
2018-09-27T07:45:28.167Z,14.60
2018-09-27T07:46:33.918Z,10.85
2018-09-27T07:47:38.744Z,14.75
2018-09-27T07:48:44.448Z,16.97
2018-09-27T07:49:49.128Z,19.82
2018-09-27T07:50:55.164Z,22.13
2018-09-27T07:52:00.036Z,8.28
2018-09-27T07:53:06.008Z,11.38
2018-09-27T07:54:12.251Z,11.30
2018-09-27T07:55:19.238Z,10.35
2018-09-27T07:56:25.165Z,8.63
2018-09-27T07:57:32.329Z,8.05
2018-09-27T07:58:47.652Z,10.40
2018-09-27T07:59:54.990Z,13.20
2018-09-27T08:01:01.476Z,13.10
2018-09-27T08:02:06.737Z,11.57
2018-09-27T08:03:14.812Z,13.95
2018-09-27T08:04:21.038Z,10.55
2018-09-27T08:05:29.351Z,8.93
2018-09-27T08:06:33.577Z,12.68
2018-09-27T08:07:40.773Z,9.48
2018-09-27T08:08:51.188Z,19.02
2018-09-27T08:09:55.716Z,7.95
2018-09-27T08:11:01.104Z,9.98
2018-09-27T08:12:06.592Z,11.90
2018-09-27T08:13:12.023Z,23.30
2018-09-27T08:14:17.729Z,20.65
2018-09-27T08:15:23.621Z,7.05
2018-09-27T08:17:31.362Z,18.20
2018-09-27T08:18:37.173Z,15.85
2018-09-27T08:19:42.849Z,8.30
2018-09-27T08:21:11.218Z,9.50
2018-09-27T08:22:16.685Z,13.90
2018-09-27T08:23:22.172Z,15.70
2018-09-27T08:24:27.831Z,12.45
2018-09-27T08:25:34.536Z,9.20
2018-09-27T08:26:41.717Z,17.42
2018-09-27T08:27:47.250Z,8.83
2018-09-27T08:28:53.763Z,9.65
2018-09-27T08:29:58.743Z,10.63
2018-09-27T08:31:03.284Z,7.30
2018-09-27T08:32:08.830Z,9.63
2018-09-27T08:33:13.251Z,11.03
2018-09-27T08:34:17.918Z,14.00
2018-09-27T08:35:22.368Z,8.60
2018-09-27T08:36:28.805Z,9.33
2018-09-27T08:37:34.757Z,7.22
2018-09-27T08:38:39.729Z,10.10
2018-09-27T08:39:44.151Z,15.13
2018-09-27T08:40:48.740Z,10.60
2018-09-27T08:41:53.253Z,11.95
2018-09-27T08:42:57.848Z,11.95
2018-09-27T08:44:02.533Z,8.83
2018-09-27T08:45:07.497Z,7.87
2018-09-27T08:46:13.153Z,10.23
2018-09-27T08:47:21.208Z,8.10
2018-09-27T08:48:26.463Z,12.25
2018-09-27T08:49:35.529Z,11.25
2018-09-27T08:50:40.417Z,9.90
2018-09-27T08:51:45.889Z,9.23
2018-09-27T08:52:50.719Z,12.15
2018-09-27T08:53:57.329Z,11.30
2018-09-27T08:55:01.917Z,13.35
2018-09-27T08:56:06.496Z,9.50
2018-09-27T08:57:11.780Z,11.12
2018-09-27T08:58:23.318Z,7.17
2018-09-27T08:59:30.952Z,15.78
2018-09-27T09:00:35.517Z,7.12
2018-09-27T09:01:40.152Z,7.65
2018-09-27T09:02:45.358Z,16.77
2018-09-27T09:03:50.229Z,12.82
2018-09-27T09:04:54.906Z,14.33
2018-09-27T09:06:00.907Z,20.27
2018-09-27T09:07:07.925Z,19.87
2018-09-27T09:08:14.460Z,19.40
2018-09-27T09:09:19.230Z,9.68
2018-09-27T09:10:25.964Z,12.60
2018-09-27T09:11:31.435Z,14.60
2018-09-27T09:12:38.024Z,12.25
2018-09-27T09:13:42.508Z,10.48
2018-09-27T09:14:52.672Z,9.80
2018-09-27T09:15:58.753Z,9.05
2018-09-27T09:17:16.712Z,8.48
2018-09-27T09:18:23.335Z,9.20
2018-09-27T09:19:28.591Z,8.30
2018-09-27T09:20:33.158Z,16.12
2018-09-27T09:21:38.718Z,10.40
2018-09-27T09:22:44.861Z,18.40
2018-09-27T09:23:52.374Z,11.10
2018-09-27T09:24:59.042Z,9.63
2018-09-27T09:26:05.357Z,10.80
2018-09-27T09:27:10.322Z,6.90
2018-09-27T09:28:15.817Z,11.60
2018-09-27T09:29:21.427Z,10.40
2018-09-27T09:30:26.903Z,9.45
2018-09-27T09:31:31.676Z,11.83
2018-09-27T09:32:36.355Z,13.72
2018-09-27T09:33:41.646Z,10.48
2018-09-27T09:34:46.468Z,9.18
2018-09-27T09:35:53.564Z,7.20
2018-09-27T09:36:58.554Z,11.00
2018-09-27T09:38:04.967Z,9.48
2018-09-27T09:39:22.729Z,14.10
2018-09-27T09:40:32.706Z,9.65
2018-09-27T09:41:40.048Z,10.43
2018-09-27T09:42:46.999Z,8.00
2018-09-27T09:43:53.382Z,13.40
2018-09-27T09:44:59.431Z,10.43
2018-09-27T09:46:05.629Z,12.10
2018-09-27T09:47:10.749Z,8.48
2018-09-27T09:48:16.951Z,10.05
2018-09-27T09:49:22.555Z,8.93
2018-09-27T09:50:37.622Z,9.98
2018-09-27T09:51:48.864Z,8.95
2018-09-27T09:52:57.108Z,11.40
2018-09-27T09:54:08.441Z,9.88
2018-09-27T09:55:21.604Z,8.30
2018-09-27T09:56:27.443Z,8.93
2018-09-27T09:59:00.219Z,7.75
2018-09-27T10:00:10.387Z,10.25
2018-09-27T10:01:18.590Z,12.15
2018-09-27T10:02:25.204Z,15.00
2018-09-27T10:03:32.401Z,17.52
2018-09-27T10:04:41.881Z,9.38
2018-09-27T10:05:51.842Z,6.78
2018-09-27T10:06:59.860Z,9.75
2018-09-27T10:08:06.828Z,8.43
2018-09-27T10:09:30.103Z,7.30
2018-09-27T10:10:40.686Z,8.73
2018-09-27T10:11:54.652Z,8.45
2018-09-27T10:13:01.302Z,12.05
2018-09-27T10:14:09.054Z,15.40
2018-09-27T10:16:56.208Z,10.38
2018-09-27T10:18:10.465Z,6.55
2018-09-27T10:19:16.926Z,11.38
2018-09-27T10:20:23.393Z,17.23
2018-09-27T10:21:29.267Z,8.28
2018-09-27T10:22:35.626Z,9.23
2018-09-27T10:23:46.225Z,18.17
2018-09-27T10:24:53.557Z,9.55
2018-09-27T10:25:59.383Z,34.13
2018-09-27T10:27:05.407Z,23.25
2018-09-27T10:28:12.397Z,24.45
2018-09-27T10:29:17.170Z,22.82
2018-09-27T10:30:21.820Z,18.45
2018-09-27T10:31:27.595Z,12.05
2018-09-27T10:32:33.402Z,16.15
2018-09-27T10:33:38.852Z,13.30
2018-09-27T10:34:43.819Z,16.65
2018-09-27T10:35:48.801Z,13.03
2018-09-27T10:36:54.935Z,7.33
2018-09-27T10:38:13.641Z,9.23
2018-09-27T10:39:20.354Z,15.63
2018-09-27T10:40:24.798Z,17.80
2018-09-27T10:41:29.334Z,9.95
2018-09-27T10:42:34.010Z,13.43
2018-09-27T10:43:39.729Z,26.82
2018-09-27T10:44:44.524Z,13.22
2018-09-27T10:45:48.969Z,8.93
2018-09-27T10:46:55.227Z,10.75
2018-09-27T10:47:59.630Z,11.28
2018-09-27T10:49:04.580Z,14.15
2018-09-27T10:50:09.502Z,7.83
2018-09-27T10:51:15.180Z,11.80
2018-09-27T10:52:20.862Z,11.28
2018-09-27T10:53:25.957Z,9.25
2018-09-27T10:54:32.916Z,10.08
2018-09-27T10:55:42.359Z,8.90
2018-09-27T10:56:48.916Z,19.20
2018-09-27T10:57:55.089Z,16.02
2018-09-27T10:59:00.674Z,12.10
2018-09-27T11:00:06.536Z,10.60
2018-09-27T11:01:16.512Z,17.42
2018-09-27T11:02:22.331Z,21.60
2018-09-27T11:03:29.489Z,7.45
2018-09-27T11:04:34.313Z,13.48
2018-09-27T11:05:41.553Z,23.57
2018-09-27T11:06:47.256Z,23.90
2018-09-27T11:07:51.997Z,18.73
2018-09-27T11:08:59.888Z,17.25
2018-09-27T11:10:05.411Z,19.90
2018-09-27T11:11:10.553Z,18.80
2018-09-27T11:12:17.217Z,20.43
2018-09-27T11:13:21.869Z,31.23
2018-09-27T11:14:28.437Z,21.50
2018-09-27T11:15:51.300Z,29.02
2018-09-27T11:16:57.198Z,20.27
2018-09-27T11:18:02.858Z,21.45
2018-09-27T11:19:07.532Z,19.32
2018-09-27T11:20:17.830Z,16.17
2018-09-27T11:21:25.246Z,24.15
2018-09-27T11:22:32.861Z,25.95
2018-09-27T11:23:40.053Z,18.37
2018-09-27T11:24:50.755Z,22.67
2018-09-27T11:25:57.706Z,24.02
2018-09-27T11:27:04.483Z,25.12
2018-09-27T11:28:12.178Z,20.95
2018-09-27T11:29:26.079Z,20.50
2018-09-27T11:30:34.814Z,21.82
2018-09-27T11:31:45.257Z,19.27
2018-09-27T11:32:56.980Z,23.65
2018-09-27T11:34:05.963Z,22.27
2018-09-27T11:35:19.235Z,25.75
2018-09-27T11:36:31.386Z,23.38
2018-09-27T11:37:42.331Z,18.37
2018-09-27T11:39:20.671Z,21.48
2018-09-27T11:40:27.433Z,24.23
2018-09-27T11:41:32.825Z,20.30
2018-09-27T11:42:37.407Z,19.07
2018-09-27T11:43:42.771Z,17.62
2018-09-27T11:44:48.921Z,16.55
2018-09-27T11:45:54.211Z,18.70
2018-09-27T11:46:58.790Z,22.00
2018-09-27T11:48:03.667Z,15.65
2018-09-27T11:49:09.472Z,19.10
2018-09-27T11:50:15.253Z,22.60
2018-09-27T11:51:21.651Z,17.80
2018-09-27T11:52:26.786Z,13.90
2018-09-27T11:53:31.559Z,18.70
2018-09-27T11:54:36.406Z,19.92
2018-09-27T11:55:43.382Z,15.43
2018-09-27T11:56:48.951Z,15.28
2018-09-27T11:57:55.354Z,16.30
2018-09-27T11:59:00.388Z,13.28
2018-09-27T12:00:05.443Z,18.85
2018-09-27T12:01:10.474Z,20.85
2018-09-27T12:02:16.146Z,14.50
2018-09-27T12:03:21.940Z,15.50
2018-09-27T12:05:55.628Z,9.50
2018-09-27T12:07:02.425Z,12.65
2018-09-27T12:08:12.315Z,15.00
2018-09-27T12:09:38.286Z,12.25
2018-09-27T12:10:44.793Z,16.17
2018-09-27T12:11:49.394Z,12.15
2018-09-27T12:12:57.311Z,12.25
2018-09-27T12:14:05.903Z,13.30
2018-09-27T12:15:19.840Z,12.43
2018-09-27T12:16:24.881Z,8.83
2018-09-27T12:17:31.333Z,10.03
2018-09-27T12:18:36.653Z,8.40
2018-09-27T12:19:41.785Z,7.67
2018-09-27T12:20:49.619Z,7.15
2018-09-27T12:22:17.297Z,4.95
2018-09-27T12:23:22.818Z,7.42
2018-09-27T12:24:28.280Z,6.50
2018-09-27T12:25:34.932Z,6.95
2018-09-27T12:26:40.378Z,7.80
2018-09-27T12:27:48.696Z,10.50
2018-09-27T12:28:53.424Z,8.40
2018-09-27T12:29:58.243Z,6.40
2018-09-27T12:31:04.107Z,6.72
2018-09-27T12:32:08.782Z,11.05
2018-09-27T12:33:14.663Z,7.65
2018-09-27T12:34:35.590Z,7.12
2018-09-27T12:35:51.124Z,7.85
2018-09-27T12:37:00.050Z,7.67
2018-09-27T12:38:08.917Z,5.62
2018-09-27T12:39:15.229Z,6.25
2018-09-27T12:40:21.276Z,6.30
2018-09-27T12:41:28.293Z,6.90
2018-09-27T12:42:35.637Z,11.08
2018-09-27T12:43:42.457Z,6.33
2018-09-27T12:44:49.584Z,9.83
2018-09-27T12:46:11.727Z,6.45
2018-09-27T12:47:17.916Z,6.72
2018-09-27T12:48:24.045Z,10.10
2018-09-27T12:49:29.088Z,9.50
2018-09-27T12:50:36.249Z,6.72
2018-09-27T12:51:45.204Z,5.28
2018-09-27T12:52:54.357Z,5.72
2018-09-27T12:54:01.780Z,9.88
2018-09-27T12:55:08.603Z,9.60
2018-09-27T12:56:14.539Z,8.73
2018-09-27T12:57:23.768Z,6.10
2018-09-27T12:58:35.657Z,5.03
2018-09-27T12:59:42.491Z,7.78
2018-09-27T13:00:49.794Z,5.62
2018-09-27T13:01:57.692Z,9.13
2018-09-27T13:03:04.318Z,7.15
2018-09-27T13:04:09.317Z,5.83
2018-09-27T13:05:14.360Z,6.47
2018-09-27T13:06:19.250Z,5.87
2018-09-27T13:07:26.564Z,7.28
2018-09-27T13:08:32.380Z,7.62
2018-09-27T13:09:39.476Z,9.90
2018-09-27T13:10:45.809Z,6.50
2018-09-27T13:11:52.270Z,12.55
2018-09-27T13:12:57.033Z,6.25
2018-09-27T13:14:03.507Z,5.75
2018-09-27T13:15:21.872Z,8.78
2018-09-27T13:16:29.602Z,7.65
2018-09-27T13:17:37.438Z,9.45
2018-09-27T13:18:42.325Z,7.37
2018-09-27T13:19:48.255Z,9.23
2018-09-27T13:20:53.722Z,7.17
2018-09-27T13:22:00.304Z,11.33
2018-09-27T13:23:05.991Z,9.03
2018-09-27T13:24:11.857Z,5.17
2018-09-27T13:25:23.948Z,11.73
2018-09-27T13:26:30.238Z,8.70
2018-09-27T13:27:34.717Z,14.15
2018-09-27T13:28:39.695Z,5.87
2018-09-27T13:30:13.972Z,13.78
2018-09-27T13:31:19.699Z,9.78
2018-09-27T13:32:24.755Z,13.00
2018-09-27T13:33:30.716Z,21.80
2018-09-27T13:34:35.518Z,10.15
2018-09-27T13:35:40.319Z,9.85
2018-09-27T13:36:46.416Z,12.28
2018-09-27T13:37:51.177Z,9.53
2018-09-27T13:38:56.851Z,6.30
2018-09-27T13:40:02.329Z,7.72
2018-09-27T13:41:08.226Z,9.73
2018-09-27T13:42:12.805Z,13.10
2018-09-27T13:43:17.502Z,16.67
2018-09-27T13:44:25.251Z,9.50
2018-09-27T13:45:33.602Z,12.80
2018-09-27T13:46:38.842Z,17.70
2018-09-27T13:47:44.268Z,31.42
2018-09-27T13:48:48.839Z,15.80
2018-09-27T13:49:54.117Z,46.13
2018-09-27T13:51:01.607Z,32.13
2018-09-27T13:52:08.745Z,47.13
2018-09-27T13:53:15.576Z,36.80
2018-09-27T13:54:20.106Z,29.70
2018-09-27T13:55:25.892Z,14.58
2018-09-27T13:56:31.380Z,9.85
2018-09-27T13:57:36.375Z,29.37
2018-09-27T13:58:44.913Z,24.05
2018-09-27T13:59:49.477Z,21.57
2018-09-27T14:00:53.966Z,17.92
2018-09-27T14:01:58.520Z,7.90
2018-09-27T14:03:05.767Z,15.58
2018-09-27T14:04:12.402Z,13.68
2018-09-27T14:05:19.189Z,8.10
2018-09-27T14:06:28.369Z,9.50
2018-09-27T14:07:36.142Z,11.25
2018-09-27T14:08:41.281Z,15.88
2018-09-27T14:09:50.337Z,14.25
2018-09-27T14:10:57.988Z,8.98
2018-09-27T14:12:06.201Z,18.25
2018-09-27T14:13:13.818Z,13.68
2018-09-27T14:14:20.371Z,33.92
2018-09-27T14:15:28.872Z,14.68
2018-09-27T14:16:36.539Z,17.35
2018-09-27T14:17:41.768Z,18.23
2018-09-27T14:18:49.582Z,16.23
2018-09-27T14:19:56.605Z,10.63
2018-09-27T14:21:05.553Z,24.40
2018-09-27T14:22:10.353Z,9.53
2018-09-27T14:23:16.206Z,24.27
2018-09-27T14:24:23.393Z,17.50
2018-09-27T14:25:28.510Z,17.48
2018-09-27T14:26:33.096Z,13.25
2018-09-27T14:27:41.895Z,14.95